ABL8112 RKPC-RKPK
Flight info
| Callsign | ABL8112 |
|---|---|
| Flight time | 0h 36m |
| Altitude | 21000 |
| Route | AKPON1W AKPON Y571 ANROD KEVOX3 |
| Aircraft | A321/M-SDE3FGHIRWY/LB1 |
Departure
| Time | 2026-05-07 11:38 |
|---|---|
| Airport | Jeju International Airport (RKPC) |
Arrival
| Time | 2026-05-07 12:15 |
|---|---|
| Airport | Gimhae International Airport (RKPK) |
| Time | Latitude | Longitude | Altitude | Speed | Heading |
|---|---|---|---|---|---|
| 2026-05-07 11:26 | 33.50639 | 126.49056 | 135 ft | 0 kts | 149° |
| 2026-05-07 11:29 | 33.50641 | 126.49055 | 135 ft | 2 kts | 149° |
| 2026-05-07 11:30 | 33.50663 | 126.49040 | 135 ft | 3 kts | 150° |
| 2026-05-07 11:30 | 33.50681 | 126.49029 | 135 ft | 4 kts | 174° |
| 2026-05-07 11:30 | 33.50704 | 126.49025 | 135 ft | 3 kts | 141° |
| 2026-05-07 11:30 | 33.50716 | 126.49007 | 135 ft | 4 kts | 75° |
| 2026-05-07 11:31 | 33.50706 | 126.48981 | 135 ft | 4 kts | 57° |
| 2026-05-07 11:31 | 33.50694 | 126.48958 | 135 ft | 1 kts | 58° |
| 2026-05-07 11:31 | 33.50693 | 126.48957 | 135 ft | 0 kts | 58° |
| 2026-05-07 11:34 | 33.50694 | 126.48958 | 135 ft | 1 kts | 58° |
| 2026-05-07 11:34 | 33.50704 | 126.48978 | 135 ft | 6 kts | 58° |
| 2026-05-07 11:34 | 33.50745 | 126.49054 | 135 ft | 14 kts | 57° |
| 2026-05-07 11:34 | 33.50791 | 126.49142 | 135 ft | 13 kts | 58° |
| 2026-05-07 11:35 | 33.50843 | 126.49240 | 135 ft | 15 kts | 57° |
| 2026-05-07 11:35 | 33.50901 | 126.49349 | 134 ft | 16 kts | 57° |
| 2026-05-07 11:35 | 33.50963 | 126.49468 | 134 ft | 18 kts | 61° |
| 2026-05-07 11:35 | 33.51038 | 126.49592 | 133 ft | 19 kts | 39° |
| 2026-05-07 11:36 | 33.51156 | 126.49655 | 134 ft | 18 kts | 17° |
| 2026-05-07 11:36 | 33.51261 | 126.49707 | 134 ft | 14 kts | 39° |
| 2026-05-07 11:36 | 33.51322 | 126.49807 | 135 ft | 15 kts | 47° |
| 2026-05-07 11:36 | 33.51417 | 126.49797 | 135 ft | 15 kts | 325° |
| 2026-05-07 11:37 | 33.51450 | 126.49690 | 136 ft | 14 kts | 250° |
| 2026-05-07 11:37 | 33.51429 | 126.49647 | 136 ft | 0 kts | 238° |
| 2026-05-07 11:37 | 33.51397 | 126.49585 | 136 ft | 36 kts | 238° |
| 2026-05-07 11:37 | 33.51124 | 126.49053 | 135 ft | 111 kts | 238° |
| 2026-05-07 11:38 | 33.50608 | 126.48052 | 139 ft | 168 kts | 239° |
| 2026-05-07 11:38 | 33.49966 | 126.46816 | 675 ft | 174 kts | 240° |
| 2026-05-07 11:38 | 33.49327 | 126.45587 | 1400 ft | 175 kts | 240° |
| 2026-05-07 11:38 | 33.48648 | 126.44309 | 1889 ft | 187 kts | 240° |
| 2026-05-07 11:39 | 33.47929 | 126.42917 | 2169 ft | 207 kts | 240° |
| 2026-05-07 11:39 | 33.47161 | 126.41406 | 2551 ft | 215 kts | 240° |
| 2026-05-07 11:39 | 33.46382 | 126.39882 | 3053 ft | 215 kts | 240° |
| 2026-05-07 11:39 | 33.45604 | 126.38359 | 3572 ft | 214 kts | 240° |
| 2026-05-07 11:40 | 33.44824 | 126.36833 | 4058 ft | 216 kts | 239° |
| 2026-05-07 11:40 | 33.43962 | 126.35367 | 4527 ft | 219 kts | 229° |
| 2026-05-07 11:40 | 33.42720 | 126.34196 | 4765 ft | 239 kts | 211° |
| 2026-05-07 11:40 | 33.41054 | 126.33551 | 5079 ft | 264 kts | 189° |
| 2026-05-07 11:41 | 33.39186 | 126.33661 | 5785 ft | 274 kts | 174° |
| 2026-05-07 11:41 | 33.37294 | 126.34014 | 6571 ft | 277 kts | 174° |
| 2026-05-07 11:41 | 33.35382 | 126.34369 | 7338 ft | 280 kts | 174° |
| 2026-05-07 11:41 | 33.33447 | 126.34735 | 8068 ft | 283 kts | 172° |
| 2026-05-07 11:42 | 33.31607 | 126.35631 | 8718 ft | 295 kts | 145° |
| 2026-05-07 11:42 | 33.30314 | 126.37515 | 9351 ft | 305 kts | 116° |
| 2026-05-07 11:42 | 33.29907 | 126.40047 | 9984 ft | 312 kts | 87° |
| 2026-05-07 11:42 | 33.30163 | 126.42689 | 10285 ft | 330 kts | 83° |
| 2026-05-07 11:43 | 33.30490 | 126.45500 | 10436 ft | 352 kts | 82° |
| 2026-05-07 11:43 | 33.30842 | 126.48419 | 10730 ft | 366 kts | 82° |
| 2026-05-07 11:43 | 33.31210 | 126.51458 | 11277 ft | 372 kts | 82° |
| 2026-05-07 11:43 | 33.31577 | 126.54540 | 11839 ft | 376 kts | 82° |
| 2026-05-07 11:44 | 33.32070 | 126.57633 | 12386 ft | 381 kts | 74° |
| 2026-05-07 11:44 | 33.33028 | 126.60606 | 12905 ft | 386 kts | 62° |
| 2026-05-07 11:44 | 33.34429 | 126.63359 | 13466 ft | 389 kts | 55° |
| 2026-05-07 11:44 | 33.35936 | 126.66070 | 14012 ft | 394 kts | 55° |
| 2026-05-07 11:45 | 33.37456 | 126.68816 | 14535 ft | 398 kts | 55° |
| 2026-05-07 11:45 | 33.38989 | 126.71598 | 15063 ft | 403 kts | 56° |
| 2026-05-07 11:45 | 33.40538 | 126.74409 | 15557 ft | 407 kts | 56° |
| 2026-05-07 11:45 | 33.41574 | 126.76294 | 15882 ft | 410 kts | 56° |
| 2026-05-07 11:46 | 33.43145 | 126.79159 | 16378 ft | 414 kts | 56° |
| 2026-05-07 11:46 | 33.44732 | 126.82057 | 16866 ft | 418 kts | 56° |
| 2026-05-07 11:46 | 33.46878 | 126.85976 | 17491 ft | 423 kts | 56° |
| 2026-05-07 11:46 | 33.47948 | 126.87933 | 17792 ft | 426 kts | 56° |
| 2026-05-07 11:47 | 33.49580 | 126.90917 | 18234 ft | 430 kts | 56° |
| 2026-05-07 11:47 | 33.51225 | 126.93930 | 18681 ft | 434 kts | 56° |
| 2026-05-07 11:47 | 33.52882 | 126.96970 | 18922 ft | 436 kts | 56° |
| 2026-05-07 11:47 | 33.54538 | 127.00012 | 18966 ft | 435 kts | 56° |
| 2026-05-07 11:48 | 33.56191 | 127.03047 | 18971 ft | 435 kts | 56° |
| 2026-05-07 11:48 | 33.57891 | 127.06041 | 18968 ft | 434 kts | 51° |
| 2026-05-07 11:48 | 33.59867 | 127.08769 | 18974 ft | 433 kts | 46° |
| 2026-05-07 11:48 | 33.61884 | 127.11453 | 18972 ft | 433 kts | 46° |
| 2026-05-07 11:49 | 33.63899 | 127.14138 | 18973 ft | 433 kts | 46° |
| 2026-05-07 11:49 | 33.65910 | 127.16827 | 18974 ft | 433 kts | 46° |
| 2026-05-07 11:49 | 33.67915 | 127.19517 | 18972 ft | 433 kts | 46° |
| 2026-05-07 11:49 | 33.69924 | 127.22214 | 18968 ft | 433 kts | 46° |
| 2026-05-07 11:50 | 33.71928 | 127.24907 | 18968 ft | 433 kts | 46° |
| 2026-05-07 11:50 | 33.73932 | 127.27599 | 18964 ft | 432 kts | 46° |
| 2026-05-07 11:50 | 33.75939 | 127.30294 | 18958 ft | 433 kts | 46° |
| 2026-05-07 11:50 | 33.77944 | 127.32989 | 18959 ft | 433 kts | 46° |
| 2026-05-07 11:51 | 33.79952 | 127.35691 | 18957 ft | 433 kts | 46° |
| 2026-05-07 11:51 | 33.81956 | 127.38391 | 18955 ft | 433 kts | 46° |
| 2026-05-07 11:51 | 33.83960 | 127.41093 | 18955 ft | 433 kts | 46° |
| 2026-05-07 11:51 | 33.85963 | 127.43797 | 18950 ft | 433 kts | 46° |
| 2026-05-07 11:52 | 33.87968 | 127.46507 | 18950 ft | 433 kts | 46° |
| 2026-05-07 11:52 | 33.89972 | 127.49214 | 18948 ft | 433 kts | 46° |
| 2026-05-07 11:52 | 33.91972 | 127.51921 | 18950 ft | 433 kts | 46° |
| 2026-05-07 11:52 | 33.93968 | 127.54632 | 18952 ft | 433 kts | 47° |
| 2026-05-07 11:53 | 33.95968 | 127.57347 | 18950 ft | 433 kts | 46° |
| 2026-05-07 11:53 | 33.97966 | 127.60056 | 18950 ft | 433 kts | 47° |
| 2026-05-07 11:53 | 33.99969 | 127.62771 | 18949 ft | 433 kts | 47° |
| 2026-05-07 11:53 | 34.01971 | 127.65488 | 18947 ft | 434 kts | 47° |
| 2026-05-07 11:54 | 34.03968 | 127.68206 | 18943 ft | 434 kts | 47° |
| 2026-05-07 11:54 | 34.05970 | 127.70928 | 18944 ft | 433 kts | 47° |
| 2026-05-07 11:54 | 34.07972 | 127.73647 | 18945 ft | 433 kts | 47° |
| 2026-05-07 11:54 | 34.09972 | 127.76366 | 18945 ft | 433 kts | 47° |
| 2026-05-07 11:55 | 34.11968 | 127.79085 | 18948 ft | 433 kts | 46° |
| 2026-05-07 11:55 | 34.13968 | 127.81811 | 18946 ft | 433 kts | 47° |
| 2026-05-07 11:55 | 34.15964 | 127.84535 | 18945 ft | 433 kts | 47° |
| 2026-05-07 11:55 | 34.17961 | 127.87262 | 18942 ft | 433 kts | 47° |
| 2026-05-07 11:56 | 34.19953 | 127.89989 | 18941 ft | 433 kts | 47° |
| 2026-05-07 11:56 | 34.21946 | 127.92722 | 18940 ft | 433 kts | 47° |
| 2026-05-07 11:56 | 34.23935 | 127.95454 | 18939 ft | 433 kts | 47° |
| 2026-05-07 11:56 | 34.25925 | 127.98188 | 18937 ft | 433 kts | 47° |
| 2026-05-07 11:57 | 34.27918 | 128.00921 | 18938 ft | 433 kts | 47° |
| 2026-05-07 11:57 | 34.29886 | 128.03612 | 18936 ft | 433 kts | 47° |
| 2026-05-07 11:57 | 34.31879 | 128.06341 | 18932 ft | 433 kts | 47° |
| 2026-05-07 11:57 | 34.33868 | 128.09079 | 18932 ft | 433 kts | 47° |
| 2026-05-07 11:58 | 34.35857 | 128.11820 | 18931 ft | 433 kts | 47° |
| 2026-05-07 11:58 | 34.37841 | 128.14555 | 18925 ft | 433 kts | 47° |
| 2026-05-07 11:58 | 34.39826 | 128.17290 | 18927 ft | 433 kts | 47° |
| 2026-05-07 11:58 | 34.41815 | 128.20029 | 18923 ft | 433 kts | 47° |
| 2026-05-07 11:59 | 34.43802 | 128.22768 | 18918 ft | 433 kts | 47° |
| 2026-05-07 11:59 | 34.45787 | 128.25511 | 18915 ft | 433 kts | 47° |
| 2026-05-07 11:59 | 34.47769 | 128.28262 | 18913 ft | 433 kts | 47° |
| 2026-05-07 11:59 | 34.49751 | 128.31011 | 18907 ft | 434 kts | 47° |
| 2026-05-07 12:00 | 34.51742 | 128.33764 | 18905 ft | 434 kts | 47° |
| 2026-05-07 12:00 | 34.53736 | 128.36520 | 18898 ft | 434 kts | 47° |
| 2026-05-07 12:00 | 34.55721 | 128.39273 | 18902 ft | 434 kts | 47° |
| 2026-05-07 12:00 | 34.57709 | 128.42033 | 18904 ft | 434 kts | 47° |
| 2026-05-07 12:01 | 34.59704 | 128.44791 | 18899 ft | 434 kts | 45° |
| 2026-05-07 12:01 | 34.61913 | 128.47215 | 18542 ft | 422 kts | 32° |
| 2026-05-07 12:01 | 34.64433 | 128.48940 | 17762 ft | 410 kts | 18° |
| 2026-05-07 12:01 | 34.67120 | 128.49908 | 16906 ft | 397 kts | 4° |
| 2026-05-07 12:02 | 34.69816 | 128.50198 | 16165 ft | 383 kts | 356° |
| 2026-05-07 12:02 | 34.72419 | 128.50343 | 15747 ft | 370 kts | 357° |
| 2026-05-07 12:02 | 34.74951 | 128.50511 | 15331 ft | 360 kts | 357° |
| 2026-05-07 12:02 | 34.77426 | 128.50685 | 14904 ft | 352 kts | 357° |
| 2026-05-07 12:03 | 34.79832 | 128.50853 | 14490 ft | 342 kts | 358° |
| 2026-05-07 12:03 | 34.82180 | 128.51012 | 14103 ft | 334 kts | 357° |
| 2026-05-07 12:03 | 34.84480 | 128.51163 | 13709 ft | 327 kts | 357° |
| 2026-05-07 12:03 | 34.86724 | 128.51305 | 13327 ft | 319 kts | 357° |
| 2026-05-07 12:04 | 34.88907 | 128.51444 | 12964 ft | 311 kts | 357° |
| 2026-05-07 12:04 | 34.91080 | 128.51578 | 12584 ft | 313 kts | 357° |
| 2026-05-07 12:04 | 34.93256 | 128.51719 | 12209 ft | 312 kts | 358° |
| 2026-05-07 12:04 | 34.95420 | 128.51859 | 11841 ft | 310 kts | 358° |
| 2026-05-07 12:05 | 34.97566 | 128.51995 | 11478 ft | 308 kts | 358° |
| 2026-05-07 12:05 | 34.99694 | 128.52131 | 11178 ft | 305 kts | 358° |
| 2026-05-07 12:05 | 35.01812 | 128.52266 | 10859 ft | 303 kts | 358° |
| 2026-05-07 12:05 | 35.03915 | 128.52403 | 10498 ft | 302 kts | 358° |
| 2026-05-07 12:06 | 35.06005 | 128.52540 | 10214 ft | 299 kts | 359° |
| 2026-05-07 12:06 | 35.08105 | 128.52792 | 10110 ft | 309 kts | 11° |
| 2026-05-07 12:06 | 35.10017 | 128.53931 | 9970 ft | 316 kts | 37° |
| 2026-05-07 12:06 | 35.11414 | 128.56033 | 9427 ft | 324 kts | 67° |
| 2026-05-07 12:07 | 35.11875 | 128.58663 | 9114 ft | 315 kts | 92° |
| 2026-05-07 12:07 | 35.11611 | 128.61295 | 8636 ft | 311 kts | 101° |
| 2026-05-07 12:07 | 35.11182 | 128.63864 | 8025 ft | 306 kts | 111° |
| 2026-05-07 12:07 | 35.10312 | 128.66188 | 7444 ft | 298 kts | 125° |
| 2026-05-07 12:08 | 35.09101 | 128.68206 | 6847 ft | 293 kts | 131° |
| 2026-05-07 12:08 | 35.07862 | 128.70175 | 6265 ft | 291 kts | 130° |
| 2026-05-07 12:08 | 35.06655 | 128.72097 | 5964 ft | 278 kts | 130° |
| 2026-05-07 12:08 | 35.05519 | 128.73911 | 5822 ft | 260 kts | 130° |
| 2026-05-07 12:09 | 35.04539 | 128.75662 | 5711 ft | 242 kts | 116° |
| 2026-05-07 12:09 | 35.04285 | 128.77632 | 5595 ft | 236 kts | 83° |
| 2026-05-07 12:09 | 35.04906 | 128.79462 | 5276 ft | 236 kts | 48° |
| 2026-05-07 12:09 | 35.06141 | 128.80745 | 4922 ft | 233 kts | 35° |
| 2026-05-07 12:10 | 35.07424 | 128.81930 | 4592 ft | 230 kts | 35° |
| 2026-05-07 12:10 | 35.08694 | 128.83102 | 4322 ft | 227 kts | 34° |
| 2026-05-07 12:10 | 35.09930 | 128.84244 | 4054 ft | 218 kts | 35° |
| 2026-05-07 12:10 | 35.11115 | 128.85346 | 3781 ft | 210 kts | 34° |
| 2026-05-07 12:11 | 35.12260 | 128.86414 | 3518 ft | 204 kts | 34° |
| 2026-05-07 12:11 | 35.13377 | 128.87456 | 3260 ft | 198 kts | 34° |
| 2026-05-07 12:11 | 35.14455 | 128.88457 | 3013 ft | 192 kts | 34° |
| 2026-05-07 12:11 | 35.15531 | 128.89377 | 2760 ft | 185 kts | 21° |
| 2026-05-07 12:12 | 35.16743 | 128.89761 | 2510 ft | 178 kts | 9° |
| 2026-05-07 12:12 | 35.17969 | 128.90085 | 2141 ft | 182 kts | 8° |
| 2026-05-07 12:12 | 35.19210 | 128.90348 | 1855 ft | 178 kts | 6° |
| 2026-05-07 12:12 | 35.20418 | 128.90453 | 1550 ft | 170 kts | 358° |
| 2026-05-07 12:13 | 35.21552 | 128.90637 | 1413 ft | 163 kts | 19° |
| 2026-05-07 12:13 | 35.22362 | 128.91506 | 1165 ft | 155 kts | 69° |
| 2026-05-07 12:13 | 35.22260 | 128.92712 | 873 ft | 144 kts | 134° |
| 2026-05-07 12:13 | 35.21403 | 128.93277 | 562 ft | 142 kts | 173° |
| 2026-05-07 12:14 | 35.20431 | 128.93393 | 337 ft | 139 kts | 176° |
| 2026-05-07 12:14 | 35.19466 | 128.93502 | 173 ft | 140 kts | 175° |
| 2026-05-07 12:14 | 35.18498 | 128.93631 | 34 ft | 139 kts | 174° |
| 2026-05-07 12:14 | 35.17653 | 128.93736 | 28 ft | 101 kts | 174° |
| 2026-05-07 12:15 | 35.17128 | 128.93801 | 25 ft | 51 kts | 174° |
| 2026-05-07 12:15 | 35.16886 | 128.93832 | 21 ft | 29 kts | 174° |
| 2026-05-07 12:15 | 35.16724 | 128.93853 | 23 ft | 20 kts | 174° |
| 2026-05-07 12:15 | 35.16590 | 128.93873 | 25 ft | 16 kts | 165° |
| 2026-05-07 12:16 | 35.16539 | 128.93966 | 23 ft | 13 kts | 91° |
| 2026-05-07 12:16 | 35.16549 | 128.94077 | 26 ft | 14 kts | 80° |
| 2026-05-07 12:16 | 35.16591 | 128.94184 | 24 ft | 15 kts | 50° |
| 2026-05-07 12:16 | 35.16671 | 128.94276 | 24 ft | 15 kts | 33° |
| 2026-05-07 12:17 | 35.16768 | 128.94323 | 23 ft | 16 kts | 15° |
| 2026-05-07 12:17 | 35.16864 | 128.94340 | 24 ft | 14 kts | 17° |
| 2026-05-07 12:17 | 35.16901 | 128.94433 | 24 ft | 13 kts | 82° |
| 2026-05-07 12:17 | 35.16923 | 128.94550 | 23 ft | 15 kts | 69° |
| 2026-05-07 12:18 | 35.16947 | 128.94659 | 23 ft | 12 kts | 98° |
| 2026-05-07 12:18 | 35.16920 | 128.94749 | 26 ft | 9 kts | 105° |
| 2026-05-07 12:18 | 35.16946 | 128.94807 | 25 ft | 7 kts | 25° |
| 2026-05-07 12:18 | 35.16967 | 128.94819 | 23 ft | 0 kts | 25° |
| 2026-05-07 12:19 | 35.16973 | 128.94821 | 23 ft | 0 kts | 22° |
| 2026-05-07 12:19 | 35.16973 | 128.94822 | 25 ft | 0 kts | 22° |